CheckWX is a tool to help pilots better visualize weather data.  It is not intended as a substitute for an official pre-flight weather briefing.

08:12:49 UTC

WIDD TAF
Hang Nadim International Airport
Batam Island, Indonesia
TAF WIDD 060500Z 0606/0706 02008KT 9999 SCT014

Dec-6@
06:00 UTC

Dec-6 @ 06:00 UTC

Dec-7@
06:00 UTC

Dec-7 @ 06:00 UTC

TAF WIDD 060500Z 0606/0706 02008KT 9999 SCT014
Wind
  • 020° at 8 KTS
Cloud Levels
  • Scattered at 1,400' AGL